Time;durP1;ratioP1;P1;durP2;ratioP2;P2;SDS_P1;SDS_P2;PMS_P1;PMS_P2;Temp;Humidity;BMP_temperature;BMP_pressure;BME280_temperature;BME280_humidity;BME280_pressure;Samples;Min_cycle;Max_cycle;Signal;HPM_P1;HPM_P2
2023/06/28 00:01:15;;;;;;;0.50;0.20;;;;;;;19.76;69.07;100410.16;5079305;28;20524;-52
2023/06/28 00:03:42;;;;;;;0.50;0.20;;;;;;;19.57;69.63;100409.59;5079036;28;20504;-51
2023/06/28 00:06:08;;;;;;;0.50;0.20;;;;;;;20.01;68.85;100404.91;5079097;28;20464;-51
2023/06/28 00:08:35;;;;;;;0.50;0.20;;;;;;;20.21;67.85;100403.56;5080365;28;20496;-52
2023/06/28 00:11:01;;;;;;;0.50;0.20;;;;;;;20.28;67.86;100407.56;5079610;28;20461;-52
2023/06/28 00:13:28;;;;;;;0.50;0.20;;;;;;;20.39;68.22;100409.56;5079888;28;20500;-51
2023/06/28 00:15:55;;;;;;;0.50;0.20;;;;;;;20.54;69.58;100413.94;5079758;28;20470;-52
2023/06/28 00:18:21;;;;;;;0.50;0.20;;;;;;;20.67;69.07;100408.59;5080063;28;20507;-52
2023/06/28 00:20:48;;;;;;;0.50;0.20;;;;;;;20.34;72.46;100417.97;5079297;28;20472;-52
2023/06/28 00:23:14;;;;;;;0.50;0.20;;;;;;;20.38;72.13;100429.44;5079907;28;20497;-52
2023/06/28 00:25:41;;;;;;;0.50;0.20;;;;;;;20.68;72.72;100416.56;5079336;28;20496;-52
2023/06/28 00:28:08;;;;;;;0.50;0.20;;;;;;;20.48;73.94;100421.63;5079521;28;20486;-52
2023/06/28 00:30:34;;;;;;;0.50;0.30;;;;;;;20.41;74.44;100421.13;5079318;28;20549;-52
2023/06/28 00:33:00;;;;;;;0.50;0.20;;;;;;;20.21;76.80;100422.47;5079538;28;20461;-52
2023/06/28 00:35:27;;;;;;;0.50;0.20;;;;;;;19.98;79.01;100423.09;5079242;28;21027;-52
2023/06/28 00:37:53;;;;;;;0.50;0.20;;;;;;;19.86;80.13;100424.75;5078594;28;20489;-52
2023/06/28 00:40:20;;;;;;;0.50;0.20;;;;;;;19.92;79.17;100423.53;5078826;28;20472;-52
2023/06/28 00:42:46;;;;;;;0.50;0.20;;;;;;;19.88;82.70;100422.88;5078520;28;20871;-52
2023/06/28 00:45:13;;;;;;;0.50;0.20;;;;;;;19.87;81.38;100422.94;5078595;28;20467;-52
2023/06/28 00:47:42;;;;;;;0.50;0.20;;;;;;;19.89;80.08;100421.03;5079289;28;20959;-52
2023/06/28 00:50:09;;;;;;;0.50;0.20;;;;;;;19.90;79.05;100414.66;5072085;28;20466;-52
2023/06/28 00:52:45;;;;;;;0.50;0.20;;;;;;;19.95;78.97;100410.69;5078092;28;20458;-52
2023/06/28 00:55:12;;;;;;;0.50;0.20;;;;;;;19.74;80.00;100414.81;5078742;28;20922;-52
2023/06/28 00:57:39;;;;;;;0.50;0.20;;;;;;;19.65;79.50;100415.38;5078363;28;20986;-52
2023/06/28 01:00:11;;;;;;;0.50;0.20;;;;;;;19.61;79.93;100420.13;5078506;28;20515;-52
2023/06/28 01:02:44;;;;;;;0.50;0.20;;;;;;;19.61;79.82;100417.41;5077632;28;20529;-52
2023/06/28 01:05:13;;;;;;;0.50;0.20;;;;;;;19.97;77.48;100421.38;5078260;28;20468;-52
2023/06/28 01:07:40;;;;;;;0.50;0.20;;;;;;;19.98;75.46;100415.88;5078015;28;20482;-51
2023/06/28 01:10:08;;;;;;;0.50;0.20;;;;;;;19.75;81.33;100421.94;5078785;28;20465;-52
2023/06/28 01:12:35;;;;;;;0.50;0.20;;;;;;;19.56;82.51;100427.59;5077987;28;20465;-52
2023/06/28 01:15:03;;;;;;;0.50;0.20;;;;;;;19.56;83.51;100424.91;5077996;28;20466;-51
2023/06/28 01:17:30;;;;;;;0.50;0.20;;;;;;;19.56;82.53;100422.22;5077957;28;20486;-52
2023/06/28 01:19:57;;;;;;;0.50;0.20;;;;;;;19.58;81.68;100424.81;5070154;28;20508;-51
2023/06/28 01:22:26;;;;;;;0.50;0.20;;;;;;;19.73;80.88;100429.22;5078855;28;20498;-51
2023/06/28 01:24:52;;;;;;;0.50;0.20;;;;;;;19.66;81.03;100427.91;5079036;28;20473;-51
2023/06/28 01:27:19;;;;;;;0.50;0.20;;;;;;;19.59;81.06;100424.72;5078600;28;20493;-51
2023/06/28 01:29:47;;;;;;;0.50;0.20;;;;;;;19.52;79.63;100423.34;5077805;28;21027;-52
2023/06/28 01:32:15;;;;;;;0.50;0.20;;;;;;;19.51;80.05;100427.88;5078543;28;20490;-52
2023/06/28 01:34:42;;;;;;;0.50;0.20;;;;;;;19.56;80.43;100424.91;5077592;28;20472;-51
2023/06/28 01:37:09;;;;;;;0.50;0.20;;;;;;;19.52;81.52;100434.13;5078092;28;20489;-52
2023/06/28 01:39:35;;;;;;;0.50;0.20;;;;;;;19.50;80.10;100426.16;5077176;28;20465;-51
2023/06/28 01:42:02;;;;;;;0.50;0.20;;;;;;;19.58;80.04;100428.38;5077191;28;20529;-51
2023/06/28 01:44:29;;;;;;;0.50;0.20;;;;;;;19.95;77.72;100423.31;5078225;28;20476;-52
2023/06/28 01:46:56;;;;;;;0.50;0.20;;;;;;;19.98;77.47;100421.28;5078761;28;20531;-51
2023/06/28 01:49:25;;;;;;;0.50;0.20;;;;;;;19.89;78.16;100423.72;5078111;28;20458;-51
2023/06/28 01:51:53;;;;;;;0.50;0.20;;;;;;;19.89;78.28;100421.91;5060540;28;20472;-51
2023/06/28 01:54:20;;;;;;;0.50;0.20;;;;;;;19.88;78.15;100419.31;5078307;28;20507;-51
2023/06/28 01:56:46;;;;;;;0.50;0.20;;;;;;;19.84;78.73;100421.31;5077994;28;20496;-52
2023/06/28 01:59:13;;;;;;;0.50;0.20;;;;;;;19.98;77.99;100417.72;5077354;28;20473;-52
2023/06/28 02:01:41;;;;;;;0.50;0.20;;;;;;;19.81;78.43;100414.28;5077509;28;20559;-52
2023/06/28 02:04:08;;;;;;;0.50;0.20;;;;;;;20.03;77.20;100418.28;5078400;28;20489;-52
2023/06/28 02:06:38;;;;;;;0.50;0.20;;;;;;;19.94;77.06;100424.28;5078205;28;20488;-52
2023/06/28 02:09:04;;;;;;;0.50;0.20;;;;;;;19.74;78.44;100428.28;5078503;28;20523;-52
2023/06/28 02:11:31;;;;;;;0.50;0.20;;;;;;;19.78;77.77;100433.38;5078127;28;20465;-52
2023/06/28 02:13:57;;;;;;;0.50;0.20;;;;;;;19.73;78.51;100424.69;5073523;28;20473;-52
2023/06/28 02:16:27;;;;;;;0.50;0.30;;;;;;;19.67;78.40;100429.63;5076967;28;20488;-51
2023/06/28 02:18:57;;;;;;;0.50;0.20;;;;;;;19.55;78.37;100423.19;5077269;28;20491;-51
2023/06/28 02:21:24;;;;;;;0.50;0.30;;;;;;;19.46;78.90;100432.72;5076790;28;20964;-52
2023/06/28 02:23:50;;;;;;;0.50;0.20;;;;;;;19.36;79.78;100420.75;5076413;28;20472;-52
2023/06/28 02:26:17;;;;;;;0.50;0.20;;;;;;;19.43;79.60;100423.91;5076248;28;20513;-51
2023/06/28 02:28:43;;;;;;;0.50;0.20;;;;;;;19.40;80.39;100432.22;5076287;28;20462;-51
2023/06/28 02:31:10;;;;;;;0.50;0.20;;;;;;;19.48;80.52;100432.59;5076522;28;20470;-51
2023/06/28 02:33:36;;;;;;;0.50;0.20;;;;;;;19.35;80.91;100428.94;5076249;28;20466;-52
2023/06/28 02:36:03;;;;;;;0.50;0.20;;;;;;;19.30;80.58;100426.53;5075885;28;20505;-52
2023/06/28 02:38:29;;;;;;;0.50;0.20;;;;;;;19.22;80.81;100421.63;5076252;28;20566;-52
2023/06/28 02:40:56;;;;;;;0.50;0.20;;;;;;;19.22;80.82;100423.44;5076061;28;20466;-52
2023/06/28 02:43:23;;;;;;;1.20;1.03;;;;;;;19.11;80.89;100428.63;5075790;28;21003;-51
2023/06/28 02:45:49;;;;;;;0.50;0.20;;;;;;;19.13;80.91;100432.97;5075322;28;20549;-51
2023/06/28 02:48:17;;;;;;;0.50;0.20;;;;;;;19.18;80.53;100424.59;5076182;28;20538;-52
2023/06/28 02:50:43;;;;;;;0.50;0.20;;;;;;;19.19;80.92;100434.44;5075394;28;20517;-52
2023/06/28 02:53:10;;;;;;;0.50;0.20;;;;;;;19.29;80.57;100427.47;5075606;28;20457;-51
2023/06/28 02:55:36;;;;;;;0.50;0.20;;;;;;;18.96;82.48;100433.13;5075660;28;20488;-52
2023/06/28 02:58:03;;;;;;;0.50;0.20;;;;;;;19.12;82.42;100433.06;5075220;28;20489;-52
2023/06/28 03:00:29;;;;;;;0.50;0.20;;;;;;;19.08;82.83;100432.41;5075460;28;20816;-52
2023/06/28 03:02:56;;;;;;;0.50;0.20;;;;;;;18.99;83.04;100430.25;5075064;28;20490;-51
2023/06/28 03:05:22;;;;;;;0.50;0.20;;;;;;;18.98;83.16;100435.75;5075331;28;20468;-51
2023/06/28 03:07:49;;;;;;;0.50;0.20;;;;;;;18.95;83.43;100444.88;5075390;28;20486;-52
2023/06/28 03:10:16;;;;;;;0.50;0.20;;;;;;;18.93;83.28;100442.28;5075273;28;20465;-52
2023/06/28 03:12:42;;;;;;;0.50;0.20;;;;;;;18.97;83.40;100448.34;5074795;28;20457;-52
2023/06/28 03:15:09;;;;;;;0.50;0.20;;;;;;;18.96;83.55;100440.34;5080543;28;20774;-52
2023/06/28 03:17:35;;;;;;;0.50;0.20;;;;;;;18.65;84.73;100439.53;5081700;28;20481;-51
2023/06/28 03:20:02;;;;;;;0.50;0.20;;;;;;;18.86;84.03;100438.22;5082016;28;20474;-52
2023/06/28 03:22:28;;;;;;;0.50;0.20;;;;;;;19.07;83.35;100438.75;5082321;28;20543;-52
2023/06/28 03:24:55;;;;;;;0.50;0.20;;;;;;;19.13;82.87;100438.34;5082236;28;20968;-52
2023/06/28 03:27:21;;;;;;;0.50;0.20;;;;;;;18.94;83.77;100440.44;5081493;28;20998;-51
2023/06/28 03:29:48;;;;;;;0.50;0.20;;;;;;;19.04;83.13;100448.81;5082765;28;20468;-52
2023/06/28 03:32:14;;;;;;;0.50;0.20;;;;;;;19.57;80.56;100440.13;5082586;28;20468;-51
2023/06/28 03:34:41;;;;;;;0.50;0.20;;;;;;;19.31;81.69;100440.84;5082522;28;20487;-52
2023/06/28 03:37:08;;;;;;;0.50;0.20;;;;;;;19.38;81.12;100436.84;5081372;28;20921;-50
2023/06/28 03:39:35;;;;;;;0.50;0.20;;;;;;;19.32;81.37;100439.91;5078311;28;20468;-50
2023/06/28 03:42:01;;;;;;;0.50;0.20;;;;;;;19.67;80.31;100441.28;5070991;28;20497;-50
2023/06/28 03:44:28;;;;;;;0.50;0.20;;;;;;;19.51;80.22;100443.19;5078487;28;20903;-50
2023/06/28 03:46:54;;;;;;;0.50;0.20;;;;;;;19.27;80.92;100439.31;5078201;28;20489;-50
2023/06/28 03:49:21;;;;;;;0.50;0.30;;;;;;;19.16;81.63;100448.94;5078258;28;20835;-51
2023/06/28 03:51:47;;;;;;;0.50;0.20;;;;;;;19.27;82.22;100453.66;5077887;28;20878;-51
2023/06/28 03:54:14;;;;;;;0.50;0.20;;;;;;;19.09;83.04;100454.81;5078382;28;20461;-50
2023/06/28 03:56:40;;;;;;;0.50;0.20;;;;;;;19.04;83.22;100448.81;5077954;28;20482;-50
2023/06/28 03:59:07;;;;;;;0.50;0.20;;;;;;;18.95;83.44;100447.56;5078066;28;20465;-50
2023/06/28 04:01:33;;;;;;;0.50;0.20;;;;;;;18.89;84.38;100450.63;5078117;28;20479;-51
2023/06/28 04:04:00;;;;;;;0.50;0.20;;;;;;;18.99;84.63;100450.94;5077961;28;21034;-51
2023/06/28 04:06:26;;;;;;;0.50;0.20;;;;;;;19.03;84.10;100445.25;5077934;28;20576;-50
2023/06/28 04:08:53;;;;;;;0.50;0.20;;;;;;;19.19;83.28;100454.16;5077446;28;20473;-50
2023/06/28 04:11:19;;;;;;;0.50;0.20;;;;;;;19.39;83.31;100452.03;5078402;28;20485;-50
2023/06/28 04:13:45;;;;;;;0.50;0.20;;;;;;;19.31;82.95;100452.50;5078017;28;20518;-50
2023/06/28 04:16:12;;;;;;;1.20;0.53;;;;;;;19.59;82.14;100451.69;5078082;28;20500;-50
2023/06/28 04:18:38;;;;;;;0.50;0.20;;;;;;;19.38;82.05;100448.50;5077631;28;20461;-50
2023/06/28 04:21:05;;;;;;;0.50;0.20;;;;;;;19.22;83.64;100456.66;5078099;28;20472;-50
2023/06/28 04:23:32;;;;;;;0.50;0.20;;;;;;;19.27;83.20;100450.97;5077577;28;20525;-51
2023/06/28 04:25:58;;;;;;;0.50;0.20;;;;;;;19.30;83.25;100460.69;5068175;28;20493;-51
2023/06/28 04:28:25;;;;;;;0.50;0.20;;;;;;;19.55;81.85;100454.69;5074601;28;20543;-51
2023/06/28 04:30:51;;;;;;;0.50;0.20;;;;;;;19.36;82.45;100460.34;5074676;28;20469;-50
2023/06/28 04:33:22;;;;;;;0.50;0.20;;;;;;;19.79;81.16;100454.00;5074626;28;20464;-50
2023/06/28 04:35:50;;;;;;;0.50;0.40;;;;;;;19.52;82.13;100453.88;5074480;28;20461;-50
2023/06/28 04:38:19;;;;;;;0.50;0.20;;;;;;;19.56;81.50;100467.19;5074331;28;20497;-51
2023/06/28 04:40:46;;;;;;;0.50;0.20;;;;;;;19.48;81.09;100460.44;5074483;28;20466;-50
2023/06/28 04:43:14;;;;;;;0.50;0.20;;;;;;;19.31;82.16;100459.72;5074363;28;20497;-50
2023/06/28 04:45:41;;;;;;;0.50;0.20;;;;;;;19.33;82.49;100471.31;5074403;28;20466;-50
2023/06/28 04:48:08;;;;;;;0.50;0.20;;;;;;;19.29;82.66;100461.66;5074213;28;20497;-50
2023/06/28 04:50:38;;;;;;;0.50;0.20;;;;;;;19.35;82.74;100456.78;5074061;28;20468;-51
2023/06/28 04:53:05;;;;;;;0.50;0.20;;;;;;;19.56;80.99;100454.56;5074336;28;20462;-50
2023/06/28 04:55:34;;;;;;;0.50;0.20;;;;;;;19.88;79.17;100451.69;5074121;28;20541;-52
2023/06/28 04:58:03;;;;;;;0.50;0.20;;;;;;;19.45;81.41;100457.91;5074025;28;20517;-51
2023/06/28 05:00:30;;;;;;;0.50;0.20;;;;;;;19.61;80.12;100454.31;5073888;28;20512;-51
2023/06/28 05:02:57;;;;;;;0.50;0.20;;;;;;;19.65;79.67;100454.00;5071645;28;20516;-50
2023/06/28 05:05:24;;;;;;;0.50;0.20;;;;;;;20.09;78.27;100458.38;5073900;28;20823;-51
2023/06/28 05:07:55;;;;;;;0.50;0.20;;;;;;;19.86;78.67;100449.06;5073520;28;20513;-51
2023/06/28 05:10:23;;;;;;;0.50;0.50;;;;;;;19.84;78.44;100450.97;5073879;28;20508;-50
2023/06/28 05:12:51;;;;;;;0.50;0.20;;;;;;;19.78;78.68;100457.66;5072859;28;20466;-50
2023/06/28 05:15:19;;;;;;;0.50;0.20;;;;;;;19.67;78.34;100462.84;5073712;28;20536;-50
2023/06/28 05:17:46;;;;;;;0.50;0.20;;;;;;;19.68;78.58;100455.63;5073114;28;20517;-51
2023/06/28 05:20:13;;;;;;;0.50;0.20;;;;;;;20.06;76.21;100463.97;5074047;28;20465;-51
2023/06/28 05:22:48;;;;;;;0.50;0.20;;;;;;;20.28;74.67;100466.09;5073801;28;20576;-50
2023/06/28 05:25:15;;;;;;;0.50;0.20;;;;;;;19.93;74.71;100463.03;5073741;28;20868;-51
2023/06/28 05:27:41;;;;;;;0.50;0.20;;;;;;;19.99;75.26;100468.00;5073244;28;20513;-50
2023/06/28 05:30:09;;;;;;;0.50;0.20;;;;;;;19.96;74.73;100465.53;5073769;28;20487;-51
2023/06/28 05:32:35;;;;;;;0.50;0.20;;;;;;;19.90;73.81;100464.09;5073271;28;20935;-50
2023/06/28 05:35:02;;;;;;;0.43;0.20;;;;;;;20.29;73.04;100466.03;5073549;28;20470;-50
2023/06/28 05:37:29;;;;;;;0.50;0.20;;;;;;;20.21;73.00;100465.66;5072761;28;20496;-51
2023/06/28 05:39:55;;;;;;;0.50;0.20;;;;;;;20.31;72.81;100461.41;5073200;28;20493;-50
2023/06/28 05:42:22;;;;;;;0.50;0.20;;;;;;;20.21;72.49;100462.97;5073282;28;20909;-51
2023/06/28 05:44:48;;;;;;;0.50;0.20;;;;;;;19.89;73.64;100466.91;5073122;28;20833;-51
2023/06/28 05:47:15;;;;;;;0.50;0.20;;;;;;;20.04;72.93;100465.91;5074112;28;20486;-52
2023/06/28 05:49:42;;;;;;;0.50;0.20;;;;;;;19.97;73.23;100468.13;5073193;28;20470;-51
2023/06/28 05:52:09;;;;;;;0.50;0.20;;;;;;;20.01;73.42;100460.69;5073223;28;20465;-50
2023/06/28 05:54:35;;;;;;;0.50;0.20;;;;;;;20.19;73.30;100464.91;5072896;28;21015;-52
2023/06/28 05:57:02;;;;;;;0.50;0.20;;;;;;;20.25;73.44;100461.78;5072818;28;20489;-51
2023/06/28 05:59:30;;;;;;;0.50;0.20;;;;;;;20.34;73.43;100471.97;5073229;28;20466;-51
2023/06/28 06:01:56;;;;;;;0.50;0.20;;;;;;;20.25;72.95;100466.31;5072935;28;20545;-50
2023/06/28 06:04:23;;;;;;;0.50;0.20;;;;;;;20.23;72.73;100469.13;5072950;28;20490;-50
2023/06/28 06:06:50;;;;;;;0.50;0.20;;;;;;;19.66;75.12;100466.53;5072739;28;20482;-50
2023/06/28 06:09:16;;;;;;;0.50;0.20;;;;;;;19.97;74.11;100468.13;5072919;28;20458;-50
2023/06/28 06:11:42;;;;;;;0.50;0.20;;;;;;;19.75;75.18;100473.19;5072578;28;20812;-51
2023/06/28 06:14:09;;;;;;;0.50;0.20;;;;;;;19.47;75.51;100465.94;5072902;28;20989;-51
2023/06/28 06:16:35;;;;;;;0.50;0.20;;;;;;;19.67;75.03;100472.78;5072727;28;20543;-50
2023/06/28 06:19:02;;;;;;;0.50;0.20;;;;;;;19.68;74.73;100467.28;5072850;28;20548;-50
2023/06/28 06:21:28;;;;;;;0.50;0.20;;;;;;;19.93;72.95;100461.19;5072749;28;20489;-50
2023/06/28 06:23:55;;;;;;;0.50;0.20;;;;;;;19.81;73.78;100468.25;5072519;28;20493;-50
2023/06/28 06:26:23;;;;;;;0.50;0.20;;;;;;;20.02;72.84;100467.84;5072423;28;20488;-50
2023/06/28 06:28:49;;;;;;;0.50;0.20;;;;;;;20.04;72.82;100474.88;5072603;28;20466;-51
2023/06/28 06:31:16;;;;;;;0.50;0.20;;;;;;;20.01;72.07;100469.69;5072765;28;20469;-50
2023/06/28 06:33:42;;;;;;;0.50;0.20;;;;;;;19.74;73.82;100476.84;5072501;28;20462;-51
2023/06/28 06:36:09;;;;;;;0.50;0.20;;;;;;;19.63;74.01;100479.34;5072409;28;20477;-50
2023/06/28 06:38:37;;;;;;;0.50;0.20;;;;;;;19.77;74.14;100477.50;5072387;28;20473;-51
2023/06/28 06:41:04;;;;;;;0.50;0.20;;;;;;;19.95;72.83;100477.28;5072576;28;20893;-51
2023/06/28 06:43:30;;;;;;;0.50;0.20;;;;;;;20.03;72.58;100489.31;5072630;28;20615;-50
2023/06/28 06:45:57;;;;;;;0.50;0.20;;;;;;;19.98;73.05;100479.78;5065162;28;20535;-51
2023/06/28 06:48:23;;;;;;;0.47;0.20;;;;;;;20.16;72.22;100481.31;5071815;28;20496;-50
2023/06/28 06:50:50;;;;;;;0.47;0.20;;;;;;;20.13;72.00;100489.56;5071780;28;20834;-50
2023/06/28 06:53:17;;;;;;;0.50;0.20;;;;;;;20.24;70.70;100496.97;5072115;28;20803;-50
2023/06/28 06:55:43;;;;;;;0.50;0.20;;;;;;;20.07;72.40;100490.00;5072068;28;20473;-50
2023/06/28 06:58:10;;;;;;;0.50;0.20;;;;;;;20.47;70.68;100490.13;5071944;28;20482;-51
2023/06/28 07:00:37;;;;;;;0.50;0.20;;;;;;;20.19;71.05;100488.34;5071889;28;21023;-50
2023/06/28 07:03:03;;;;;;;0.50;0.20;;;;;;;20.74;69.97;100484.69;5071994;28;20493;-50
2023/06/28 07:05:30;;;;;;;0.50;0.20;;;;;;;20.85;68.58;100488.41;5071981;28;20466;-52
2023/06/28 07:07:56;;;;;;;0.50;0.20;;;;;;;20.72;68.65;100484.81;5071782;28;20492;-51
2023/06/28 07:10:23;;;;;;;0.50;0.20;;;;;;;20.85;68.63;100484.84;5071756;28;20583;-50
2023/06/28 07:12:49;;;;;;;0.50;0.20;;;;;;;20.89;68.43;100483.66;5071589;28;20458;-50
2023/06/28 07:15:16;;;;;;;0.50;0.20;;;;;;;20.58;69.33;100479.47;5072019;28;20497;-52
2023/06/28 07:17:42;;;;;;;0.50;0.20;;;;;;;20.98;68.34;100486.59;5071811;28;20486;-51
2023/06/28 07:20:09;;;;;;;0.50;0.20;;;;;;;20.85;68.85;100484.84;5071945;28;20461;-51
2023/06/28 07:22:36;;;;;;;0.50;0.20;;;;;;;21.02;68.51;100486.38;5071582;28;20465;-50
2023/06/28 07:25:04;;;;;;;0.50;0.20;;;;;;;20.74;69.46;100482.88;5054248;28;20469;-51
2023/06/28 07:27:30;;;;;;;0.50;0.20;;;;;;;20.85;67.95;100488.41;5071648;28;20481;-50
2023/06/28 07:29:57;;;;;;;1.53;1.43;;;;;;;20.73;68.34;100488.38;5066323;28;20827;-50
2023/06/28 07:32:26;;;;;;;0.50;0.50;;;;;;;21.06;67.98;100487.91;5071997;28;20556;-51
2023/06/28 07:34:56;;;;;;;0.50;0.20;;;;;;;21.00;68.07;100478.38;5071587;28;20515;-50
2023/06/28 07:37:23;;;;;;;0.50;0.20;;;;;;;21.41;66.51;100489.06;5071604;28;21037;-50
2023/06/28 07:39:49;;;;;;;0.50;0.20;;;;;;;20.75;67.89;100481.88;5071654;28;20462;-50
2023/06/28 07:42:16;;;;;;;0.50;0.20;;;;;;;21.15;67.36;100488.13;5071740;28;20839;-50
2023/06/28 07:44:43;;;;;;;0.50;0.20;;;;;;;21.38;66.24;100481.16;5071429;28;20493;-50
2023/06/28 07:47:10;;;;;;;0.50;0.20;;;;;;;20.92;68.04;100473.50;5071898;28;20485;-51
2023/06/28 07:49:38;;;;;;;0.50;0.20;;;;;;;21.38;66.86;100481.16;5071540;28;20461;-51
2023/06/28 07:52:05;;;;;;;0.50;0.20;;;;;;;21.00;66.90;100481.94;5071748;28;20472;-50
2023/06/28 07:54:32;;;;;;;0.50;0.20;;;;;;;20.81;68.04;100484.16;5071447;28;20989;-51
2023/06/28 07:57:00;;;;;;;0.50;0.20;;;;;;;21.11;67.03;100483.91;5071593;28;20485;-50
2023/06/28 07:59:27;;;;;;;0.50;0.20;;;;;;;21.18;67.03;100481.63;5071633;28;20549;-50
2023/06/28 08:01:54;;;;;;;0.50;0.20;;;;;;;21.45;66.19;100487.00;5074734;28;20954;-50
2023/06/28 08:04:22;;;;;;;0.50;0.20;;;;;;;21.16;66.44;100492.56;5074837;28;20899;-50
2023/06/28 08:06:49;;;;;;;1.60;1.50;;;;;;;20.69;67.84;100491.25;5075102;28;20496;-50
2023/06/28 08:09:16;;;;;;;0.50;0.20;;;;;;;21.10;66.88;100489.41;5075357;28;20583;-50
2023/06/28 08:11:42;;;;;;;0.50;0.20;;;;;;;21.29;65.57;100481.78;5075286;28;20469;-50
2023/06/28 08:14:09;;;;;;;0.50;0.20;;;;;;;21.13;66.47;100479.28;5075135;28;20568;-51
2023/06/28 08:16:35;;;;;;;0.50;0.20;;;;;;;21.63;65.33;100476.69;5074720;28;20492;-51
2023/06/28 08:19:02;;;;;;;0.50;0.20;;;;;;;21.43;65.52;100475.41;5075048;28;20457;-51
2023/06/28 08:21:28;;;;;;;0.50;0.20;;;;;;;21.45;65.66;100477.03;5075238;28;20465;-50
2023/06/28 08:23:55;;;;;;;0.50;0.20;;;;;;;22.25;63.29;100479.41;5074846;28;20493;-50
2023/06/28 08:26:21;;;;;;;0.50;0.20;;;;;;;21.65;64.41;100480.16;5074807;28;21057;-50
2023/06/28 08:28:48;;;;;;;0.50;0.20;;;;;;;21.10;66.08;100474.03;5074777;28;20466;-50
2023/06/28 08:31:25;;;;;;;0.50;0.20;;;;;;;21.50;65.87;100477.56;5074687;28;20454;-50
2023/06/28 08:33:51;;;;;;;0.50;0.20;;;;;;;21.97;65.17;100475.13;5074390;28;21373;-50
2023/06/28 08:36:18;;;;;;;0.50;0.20;;;;;;;21.91;65.07;100475.56;5074387;28;20572;-50
2023/06/28 08:38:44;;;;;;;0.50;0.20;;;;;;;22.43;62.19;100476.19;5074094;28;20903;-51
2023/06/28 08:41:11;;;;;;;0.50;0.20;;;;;;;22.25;60.68;100472.16;5074557;28;20952;-51
2023/06/28 08:43:41;;;;;;;0.50;0.20;;;;;;;21.73;63.06;100472.34;5073980;28;20493;-51
2023/06/28 08:46:08;;;;;;;0.50;0.20;;;;;;;22.13;61.77;100475.78;5074265;28;20527;-50
2023/06/28 08:48:36;;;;;;;0.50;0.20;;;;;;;22.05;61.77;100467.31;5074254;28;20838;-50
2023/06/28 08:51:04;;;;;;;0.50;0.20;;;;;;;22.32;60.86;100462.59;5074266;28;20548;-50
2023/06/28 08:53:31;;;;;;;0.50;0.20;;;;;;;22.56;60.07;100468.00;5074233;28;20466;-51
2023/06/28 08:55:59;;;;;;;0.50;0.20;;;;;;;22.04;60.76;100460.16;5074334;28;20505;-51
2023/06/28 08:58:28;;;;;;;0.50;0.20;;;;;;;22.24;59.25;100456.88;5074013;28;20472;-50
2023/06/28 09:00:56;;;;;;;0.50;0.20;;;;;;;22.34;58.83;100463.34;5073803;28;20548;-50
2023/06/28 09:03:23;;;;;;;0.50;0.20;;;;;;;22.11;58.74;100451.50;5073955;28;20982;-50
2023/06/28 09:05:51;;;;;;;0.50;0.20;;;;;;;22.14;59.43;100445.88;5073727;28;20515;-50
2023/06/28 09:08:18;;;;;;;0.50;0.20;;;;;;;23.02;57.36;100450.94;5073810;28;20568;-50
2023/06/28 09:10:45;;;;;;;0.50;0.30;;;;;;;22.74;55.98;100454.91;5073391;28;20473;-51
2023/06/28 09:13:19;;;;;;;0.50;0.20;;;;;;;23.02;56.67;100459.09;5073015;28;20476;-50
2023/06/28 09:15:47;;;;;;;0.50;0.20;;;;;;;23.84;54.10;100457.09;5073485;28;20998;-50
2023/06/28 09:18:15;;;;;;;0.50;0.30;;;;;;;23.21;55.33;100461.25;5055754;28;20488;-51
2023/06/28 09:20:49;;;;;;;0.50;0.20;;;;;;;23.27;54.99;100458.91;5073602;28;20470;-51
2023/06/28 09:23:30;;;;;;;0.50;0.20;;;;;;;23.32;54.74;100455.84;5073593;28;20489;-51
2023/06/28 09:25:57;;;;;;;0.50;0.30;;;;;;;23.87;53.86;100455.03;5073150;28;20493;-51
2023/06/28 09:28:30;;;;;;;0.50;0.20;;;;;;;23.49;54.51;100446.34;5073708;28;20497;-51
2023/06/28 09:30:57;;;;;;;0.50;0.20;;;;;;;24.06;53.22;100448.94;5073945;28;20470;-51
2023/06/28 09:33:24;;;;;;;0.50;0.20;;;;;;;24.16;51.48;100447.19;5073553;28;20462;-50
2023/06/28 09:35:57;;;;;;;0.50;0.20;;;;;;;24.34;51.66;100447.56;5072944;28;20469;-51
2023/06/28 09:38:24;;;;;;;0.50;0.20;;;;;;;24.86;50.42;100451.31;5080170;22;21094;-54
2023/06/28 09:40:59;;;;;;;0.50;0.30;;;;;;;24.19;51.19;100457.81;5056219;28;20499;-54
2023/06/28 09:43:34;;;;;;;0.50;0.20;;;;;;;24.10;51.27;100461.28;5057863;28;20494;-54
2023/06/28 09:46:14;;;;;;;0.50;0.20;;;;;;;24.00;51.56;100454.88;5058463;28;20465;-54
2023/06/28 09:48:46;;;;;;;0.50;0.30;;;;;;;23.72;51.95;100450.84;5034230;28;20471;-54
2023/06/28 09:51:18;;;;;;;0.50;0.20;;;;;;;23.99;52.02;100457.75;5045956;28;20571;-54
2023/06/28 09:53:53;;;;;;;0.50;0.20;;;;;;;24.06;50.28;100465.25;5049738;28;20958;-54
2023/06/28 09:56:20;;;;;;;0.50;0.20;;;;;;;23.18;52.69;100454.22;5036323;28;20464;-54
2023/06/28 09:58:47;;;;;;;0.50;0.20;;;;;;;23.88;52.48;100464.91;5048372;28;20463;-54
2023/06/28 10:01:15;;;;;;;0.50;0.20;;;;;;;23.86;52.11;100457.88;5032918;28;20472;-54
2023/06/28 10:03:44;;;;;;;0.50;0.20;;;;;;;23.87;52.05;100463.19;5045723;28;20495;-54
2023/06/28 10:06:13;;;;;;;0.50;0.20;;;;;;;24.02;50.98;100452.91;5039967;28;20459;-54
2023/06/28 10:08:40;;;;;;;0.50;0.20;;;;;;;24.47;50.58;100450.97;5044946;28;20458;-54
2023/06/28 10:11:12;;;;;;;0.50;0.23;;;;;;;24.40;50.99;100459.78;5043332;28;20467;-54
2023/06/28 10:13:42;;;;;;;0.50;0.20;;;;;;;24.34;50.48;100455.69;5044448;28;20462;-54
2023/06/28 10:16:23;;;;;;;0.50;0.20;;;;;;;23.80;52.11;100452.91;5035824;28;20962;-54
2023/06/28 10:18:50;;;;;;;0.50;0.40;;;;;;;23.59;52.23;100455.53;5039556;28;20463;-54
2023/06/28 10:21:18;;;;;;;0.50;0.20;;;;;;;23.99;51.19;100461.31;5046256;28;20498;-54
2023/06/28 10:23:45;;;;;;;0.50;0.20;;;;;;;24.24;50.59;100468.28;5036989;28;20503;-54
2023/06/28 10:26:12;;;;;;;0.50;0.20;;;;;;;24.70;49.58;100464.47;5043425;28;20810;-54
2023/06/28 10:28:40;;;;;;;0.50;0.20;;;;;;;24.01;50.32;100466.63;5035265;28;20555;-54
2023/06/28 10:31:07;;;;;;;0.50;0.20;;;;;;;23.72;50.56;100464.41;5041622;28;20462;-54
2023/06/28 10:33:36;;;;;;;0.50;0.20;;;;;;;24.20;50.55;100455.94;5043743;28;20468;-54
2023/06/28 10:36:04;;;;;;;0.70;0.70;;;;;;;24.10;50.96;100453.13;5038788;28;20493;-54
2023/06/28 10:38:38;;;;;;;0.50;0.20;;;;;;;24.55;50.30;100454.91;5039464;28;20619;-54
2023/06/28 10:41:05;;;;;;;0.50;0.20;;;;;;;24.43;50.40;100454.09;5022794;28;20545;-54
2023/06/28 10:43:32;;;;;;;0.50;0.30;;;;;;;24.10;51.00;100452.25;5036794;28;20468;-55
2023/06/28 10:45:59;;;;;;;0.50;0.20;;;;;;;24.42;50.69;100452.34;5051835;28;20468;-54
2023/06/28 10:48:27;;;;;;;0.50;0.20;;;;;;;24.61;50.38;100455.25;5033482;28;20511;-54
2023/06/28 10:50:58;;;;;;;0.50;0.20;;;;;;;24.48;49.61;100460.84;5048194;28;20470;-54
2023/06/28 10:53:26;;;;;;;0.50;0.27;;;;;;;25.00;48.39;100453.72;5029953;28;20527;-54
2023/06/28 10:56:10;;;;;;;0.50;0.20;;;;;;;24.63;50.12;100452.38;5044962;28;20982;-54
2023/06/28 10:58:42;;;;;;;0.50;0.20;;;;;;;24.60;50.00;100449.94;5045964;28;20473;-54
2023/06/28 11:01:13;;;;;;;0.50;0.30;;;;;;;24.57;50.10;100445.63;5036493;28;20468;-54
2023/06/28 11:03:44;;;;;;;0.50;0.30;;;;;;;25.30;49.42;100441.16;5045142;28;20905;-54
2023/06/28 11:06:12;;;;;;;0.50;0.20;;;;;;;24.77;49.53;100427.59;5032937;28;20833;-54
2023/06/28 11:08:40;;;;;;;0.50;0.30;;;;;;;25.24;48.77;100433.56;5045773;28;20553;-53
2023/06/28 11:11:10;;;;;;;0.50;0.20;;;;;;;25.61;48.01;100440.19;5043506;28;20474;-54
2023/06/28 11:13:39;;;;;;;0.50;0.30;;;;;;;25.18;48.66;100439.53;5043859;28;20509;-54
2023/06/28 11:16:08;;;;;;;0.50;0.23;;;;;;;25.48;48.18;100439.53;5032751;28;20825;-53
2023/06/28 11:18:35;;;;;;;0.50;0.30;;;;;;;25.37;48.84;100434.22;5036502;28;20573;-54
2023/06/28 11:21:03;;;;;;;0.50;0.20;;;;;;;25.56;48.54;100428.84;5045124;28;20490;-53
2023/06/28 11:23:37;;;;;;;0.50;0.20;;;;;;;25.56;48.73;100438.88;5037606;28;20466;-54
2023/06/28 11:26:05;;;;;;;0.70;0.40;;;;;;;26.17;46.16;100433.38;5028919;28;20458;-53